createdAt,value
2023-04-19T03:59:08.381Z,20.57
2023-04-19T04:00:08.370Z,20.53
2023-04-19T04:01:08.332Z,20.57
2023-04-19T04:02:08.398Z,20.60
2023-04-19T04:03:08.461Z,20.60
2023-04-19T04:04:08.411Z,20.60
2023-04-19T04:05:08.460Z,20.63
2023-04-19T04:06:08.288Z,20.60
2023-04-19T04:07:08.281Z,20.71
2023-04-19T04:08:08.296Z,20.60
2023-04-19T04:09:08.320Z,20.63
2023-04-19T04:10:08.264Z,20.64
2023-04-19T04:11:08.252Z,20.68
2023-04-19T04:12:08.250Z,20.67
2023-04-19T04:13:08.249Z,20.68
2023-04-19T04:14:08.274Z,20.71
2023-04-19T04:15:08.409Z,20.71
2023-04-19T04:16:08.262Z,20.68
2023-04-19T04:17:08.222Z,20.78
2023-04-19T04:18:09.239Z,20.76
2023-04-19T04:19:08.246Z,20.85
2023-04-19T04:20:08.207Z,20.78
2023-04-19T04:21:08.230Z,20.82
2023-04-19T04:22:08.204Z,20.86
2023-04-19T04:23:08.199Z,20.82
2023-04-19T04:24:08.201Z,20.93
2023-04-19T04:25:08.224Z,20.90
2023-04-19T04:26:08.255Z,20.97
2023-04-19T04:27:08.215Z,20.86
2023-04-19T04:28:08.198Z,20.90
2023-04-19T04:29:08.191Z,20.90
2023-04-19T04:30:08.181Z,20.90
2023-04-19T04:31:08.197Z,20.85
2023-04-19T04:32:08.261Z,20.98
2023-04-19T04:33:08.186Z,21.06
2023-04-19T04:34:08.160Z,20.94
2023-04-19T04:35:08.168Z,21.04
2023-04-19T04:36:09.829Z,21.00
2023-04-19T04:37:08.151Z,21.00
2023-04-19T04:38:17.604Z,21.00
2023-04-19T04:39:08.169Z,21.03
2023-04-19T04:40:08.213Z,21.00
2023-04-19T04:41:08.163Z,21.06
2023-04-19T04:42:08.131Z,21.04
2023-04-19T04:43:08.142Z,21.04
2023-04-19T04:44:12.068Z,21.08
2023-04-19T04:45:08.126Z,21.09
2023-04-19T04:46:08.166Z,21.06
2023-04-19T04:47:08.169Z,21.01
2023-04-19T04:48:08.170Z,21.09
2023-04-19T04:49:08.106Z,21.00
2023-04-19T04:50:08.108Z,21.08
2023-04-19T04:51:08.120Z,21.12
2023-04-19T04:52:08.123Z,21.09
2023-04-19T04:53:08.126Z,21.11
2023-04-19T04:54:08.082Z,21.16
2023-04-19T04:55:08.086Z,21.19
2023-04-19T04:56:08.099Z,21.18
2023-04-19T04:57:08.077Z,21.19
2023-04-19T04:58:08.094Z,21.19
2023-04-19T04:59:08.072Z,21.21
2023-04-19T05:00:08.082Z,21.22
2023-04-19T05:01:08.191Z,21.28
2023-04-19T05:02:08.084Z,21.30
2023-04-19T05:03:08.313Z,21.33
2023-04-19T05:04:08.073Z,21.23
2023-04-19T05:05:08.047Z,21.23
2023-04-19T05:06:08.066Z,21.28
2023-04-19T05:07:08.054Z,21.25
2023-04-19T05:08:08.046Z,21.30
2023-04-19T05:09:08.045Z,21.31
2023-04-19T05:10:08.054Z,21.28
2023-04-19T05:11:08.039Z,21.34
2023-04-19T05:12:08.064Z,21.31
2023-04-19T05:13:08.025Z,21.30
2023-04-19T05:14:08.013Z,21.37
2023-04-19T05:15:08.007Z,21.34
2023-04-19T05:16:08.019Z,21.31
2023-04-19T05:17:07.994Z,21.36
2023-04-19T05:18:07.994Z,21.43
2023-04-19T05:19:08.009Z,21.40
2023-04-19T05:20:08.001Z,21.40
2023-04-19T05:21:08.000Z,21.40
2023-04-19T05:22:07.990Z,21.49
2023-04-19T05:23:08.010Z,21.49
2023-04-19T05:24:07.981Z,21.52
2023-04-19T05:25:07.985Z,21.52
2023-04-19T05:26:08.008Z,21.59
2023-04-19T05:27:07.960Z,21.55
2023-04-19T05:28:07.969Z,21.49
2023-04-19T05:29:07.974Z,21.55
2023-04-19T05:30:08.037Z,21.61
2023-04-19T05:31:07.978Z,21.66
2023-04-19T05:32:07.954Z,21.58
2023-04-19T05:33:08.007Z,21.66
2023-04-19T05:34:07.984Z,21.61
2023-04-19T05:35:07.964Z,21.70
2023-04-19T05:36:07.936Z,21.66
2023-04-19T05:37:07.926Z,21.74
2023-04-19T05:38:08.020Z,21.73
2023-04-19T05:39:07.930Z,21.76
2023-04-19T05:40:07.920Z,21.76
2023-04-19T05:41:07.954Z,21.76
2023-04-19T05:42:07.952Z,21.77
2023-04-19T05:43:07.921Z,21.80
2023-04-19T05:44:07.902Z,21.83
2023-04-19T05:45:08.215Z,21.90
2023-04-19T05:46:07.933Z,21.90
2023-04-19T05:47:07.936Z,21.86
2023-04-19T05:48:07.999Z,21.92
2023-04-19T05:49:07.907Z,21.96
2023-04-19T05:50:08.011Z,22.02
2023-04-19T05:51:07.975Z,22.07
2023-04-19T05:52:07.969Z,21.99
2023-04-19T05:53:07.866Z,22.12
2023-04-19T05:54:07.888Z,22.11
2023-04-19T05:55:07.930Z,22.23
2023-04-19T05:56:07.906Z,22.16
2023-04-19T05:57:07.932Z,22.20
2023-04-19T05:58:08.533Z,22.26
2023-04-19T05:59:08.107Z,22.23
2023-04-19T06:00:07.849Z,22.26
2023-04-19T06:01:08.536Z,22.23
2023-04-19T06:02:07.997Z,22.34
2023-04-19T06:03:08.100Z,22.38
2023-04-19T06:04:08.112Z,22.44
2023-04-19T06:05:10.412Z,22.45
2023-04-19T06:06:07.988Z,22.46
2023-04-19T06:07:13.479Z,22.51
2023-04-19T06:08:07.949Z,22.51
2023-04-19T06:09:07.871Z,22.64
2023-04-19T06:10:07.817Z,22.59
2023-04-19T06:11:19.866Z,22.66
2023-04-19T06:12:07.889Z,22.57
2023-04-19T06:13:07.882Z,22.66
2023-04-19T06:14:07.805Z,22.69
2023-04-19T06:15:07.836Z,22.70
2023-04-19T06:16:07.827Z,22.76
2023-04-19T06:17:07.831Z,22.82
2023-04-19T06:18:07.798Z,22.85
2023-04-19T06:19:07.806Z,22.86
2023-04-19T06:20:07.916Z,22.92
2023-04-19T06:21:07.909Z,22.89
2023-04-19T06:22:07.818Z,22.88
2023-04-19T06:23:07.792Z,22.94
2023-04-19T06:24:07.898Z,23.03
2023-04-19T06:25:07.799Z,23.04
2023-04-19T06:26:07.781Z,23.01
2023-04-19T06:27:07.829Z,23.12
2023-04-19T06:28:07.771Z,23.09
2023-04-19T06:29:07.782Z,23.10
2023-04-19T06:30:07.780Z,23.07
2023-04-19T06:31:07.790Z,23.10
2023-04-19T06:32:07.800Z,23.18
2023-04-19T06:33:07.777Z,23.22
2023-04-19T06:34:07.804Z,23.26
2023-04-19T06:35:07.820Z,23.26
2023-04-19T06:36:07.775Z,23.19
2023-04-19T06:37:07.792Z,23.22
2023-04-19T06:38:07.768Z,23.35
2023-04-19T06:39:07.862Z,23.40
2023-04-19T06:40:07.759Z,23.38
2023-04-19T06:41:07.773Z,23.35
2023-04-19T06:42:07.770Z,23.40
2023-04-19T06:43:07.743Z,23.44
2023-04-19T06:44:07.764Z,23.44
2023-04-19T06:45:07.871Z,23.44
2023-04-19T06:46:07.861Z,23.44
2023-04-19T06:47:07.768Z,23.60
2023-04-19T06:48:07.861Z,23.48
2023-04-19T06:49:07.726Z,23.60
2023-04-19T06:50:07.732Z,23.60
2023-04-19T06:51:07.744Z,23.64
2023-04-19T06:52:07.757Z,23.64
2023-04-19T06:53:07.747Z,23.67
2023-04-19T06:54:07.775Z,23.66
2023-04-19T06:55:07.834Z,23.64
2023-04-19T06:58:40.356Z,23.79
2023-04-19T06:59:40.332Z,23.75
2023-04-19T07:00:40.330Z,23.87
2023-04-19T07:01:40.444Z,23.81
2023-04-19T07:03:40.477Z,23.90
2023-04-19T07:04:40.449Z,23.93
2023-04-19T07:05:40.362Z,23.93
2023-04-19T07:06:40.361Z,23.99
2023-04-19T07:07:40.313Z,23.97
2023-04-19T07:08:49.746Z,23.93
2023-04-19T07:09:40.351Z,23.97
2023-04-19T07:10:40.413Z,23.97
2023-04-19T07:11:40.378Z,24.09
2023-04-19T07:12:40.330Z,24.08
2023-04-19T07:13:40.353Z,24.12
2023-04-19T07:14:40.341Z,24.12
2023-04-19T07:15:40.348Z,24.19
2023-04-19T07:16:40.307Z,24.18
2023-04-19T07:17:40.334Z,24.21
2023-04-19T07:18:40.298Z,24.19
2023-04-19T07:19:40.289Z,24.22
2023-04-19T07:20:40.366Z,24.26
2023-04-19T07:21:40.413Z,24.30
2023-04-19T07:22:40.379Z,24.27
2023-04-19T07:23:40.284Z,24.27
2023-04-19T07:24:40.294Z,24.30
2023-04-19T07:25:40.277Z,24.34
2023-04-19T07:26:40.440Z,24.32
2023-04-19T07:27:40.296Z,24.42
2023-04-19T07:28:40.313Z,24.30
2023-04-19T07:29:41.883Z,24.42
2023-04-19T07:30:40.332Z,24.37
2023-04-19T07:31:40.334Z,24.46
2023-04-19T07:32:40.546Z,24.55
2023-04-19T07:33:40.346Z,24.49
2023-04-19T07:34:40.464Z,24.44
2023-04-19T07:35:40.394Z,24.63
2023-04-19T07:36:40.385Z,24.63
2023-04-19T07:37:40.346Z,24.56
2023-04-19T07:38:40.398Z,24.59
2023-04-19T07:39:40.315Z,24.64
2023-04-19T07:40:40.334Z,24.58
2023-04-19T07:41:40.304Z,24.59
2023-04-19T07:42:40.398Z,24.61
2023-04-19T07:43:41.164Z,24.61
2023-04-19T07:44:40.299Z,24.69
2023-04-19T07:45:40.248Z,24.70
2023-04-19T07:46:40.377Z,24.66
2023-04-19T07:47:40.335Z,24.75
2023-04-19T07:48:40.246Z,24.67
2023-04-19T07:49:40.368Z,24.75
2023-04-19T07:50:40.314Z,24.74
2023-04-19T07:51:40.256Z,24.75
2023-04-19T07:52:40.286Z,24.74
2023-04-19T07:53:40.302Z,24.74
2023-04-19T07:54:40.277Z,24.74
2023-04-19T07:55:40.325Z,24.74
2023-04-19T07:56:40.298Z,24.77
2023-04-19T07:57:40.299Z,24.67
2023-04-19T07:58:40.253Z,24.71
2023-04-19T07:59:40.256Z,24.71
2023-04-19T08:00:40.230Z,24.78
2023-04-19T08:01:40.401Z,24.67
2023-04-19T08:02:40.339Z,24.74
2023-04-19T08:03:40.490Z,24.77
2023-04-19T08:04:40.532Z,24.75
2023-04-19T08:05:40.398Z,24.70
2023-04-19T08:06:40.246Z,24.75
2023-04-19T08:07:40.218Z,24.74
2023-04-19T08:08:40.212Z,24.77
2023-04-19T08:09:40.330Z,24.78
2023-04-19T08:10:40.228Z,24.75
2023-04-19T08:11:40.297Z,24.78
2023-04-19T08:12:47.333Z,24.77
2023-04-19T08:13:40.520Z,24.71
2023-04-19T08:14:51.602Z,24.78
2023-04-19T08:17:06.563Z,24.77
2023-04-19T08:17:42.324Z,24.77
2023-04-19T08:18:40.245Z,24.83
2023-04-19T08:19:40.237Z,24.75
2023-04-19T08:20:40.222Z,24.80
2023-04-19T08:21:41.522Z,24.67
2023-04-19T08:22:40.362Z,24.77
2023-04-19T08:23:48.046Z,24.74
2023-04-19T08:24:40.257Z,24.78
2023-04-19T08:25:40.211Z,24.80
2023-04-19T08:26:40.303Z,24.82
2023-04-19T08:27:40.385Z,24.71
2023-04-19T08:28:40.209Z,24.75
2023-04-19T08:29:40.214Z,24.77
2023-04-19T08:30:40.278Z,24.74
2023-04-19T08:31:40.214Z,24.80
2023-04-19T08:32:40.268Z,24.69
2023-04-19T08:33:40.248Z,24.70
2023-04-19T08:34:40.192Z,24.70
2023-04-19T08:35:40.234Z,24.70
2023-04-19T08:36:45.901Z,24.77
2023-04-19T08:37:40.240Z,24.67
2023-04-19T08:38:40.894Z,24.80
2023-04-19T08:39:40.435Z,24.77
2023-04-19T08:40:40.210Z,24.85
2023-04-19T08:41:40.260Z,24.77
2023-04-19T08:42:40.260Z,24.77
2023-04-19T08:43:41.644Z,24.82
2023-04-19T08:44:50.992Z,24.82
2023-04-19T08:45:40.243Z,24.77
2023-04-19T08:46:40.361Z,24.87
2023-04-19T08:48:40.323Z,24.92
2023-04-19T08:49:42.733Z,24.92
2023-04-19T08:50:51.949Z,25.00
2023-04-19T08:51:40.208Z,24.92
2023-04-19T08:53:40.236Z,24.97
2023-04-19T08:54:40.190Z,25.00
2023-04-19T08:55:47.327Z,25.01
2023-04-19T08:56:40.209Z,25.02
2023-04-19T08:57:40.327Z,25.02
2023-04-19T08:58:57.926Z,25.01
2023-04-19T08:59:40.189Z,25.04
2023-04-19T09:00:40.185Z,25.00
2023-04-19T09:01:41.618Z,25.05
2023-04-19T09:02:40.585Z,25.05
2023-04-19T09:03:55.445Z,25.02
2023-04-19T09:04:40.558Z,25.05
2023-04-19T09:05:40.728Z,25.08
2023-04-19T09:06:40.421Z,25.08
2023-04-19T09:07:40.232Z,25.12
2023-04-19T09:08:40.181Z,25.07
2023-04-19T09:09:55.420Z,25.15
2023-04-19T09:10:40.238Z,25.15
2023-04-19T09:11:40.213Z,25.08
2023-04-19T09:12:40.167Z,25.15
2023-04-19T09:13:40.173Z,25.17
2023-04-19T09:14:43.080Z,25.19
2023-04-19T09:15:40.235Z,25.15
2023-04-19T09:16:40.201Z,25.17
2023-04-19T09:17:40.271Z,25.19
2023-04-19T09:18:53.389Z,25.22
2023-04-19T09:19:40.149Z,25.23
2023-04-19T09:20:40.183Z,25.23
2023-04-19T09:21:40.169Z,25.23
2023-04-19T09:22:40.163Z,25.26
2023-04-19T09:23:40.167Z,25.30
2023-04-19T09:25:02.515Z,25.32
2023-04-19T09:26:05.973Z,25.24
2023-04-19T09:28:12.828Z,25.34
2023-04-19T09:29:13.886Z,25.34
2023-04-19T09:30:24.165Z,25.37
2023-04-19T09:31:33.337Z,25.37
2023-04-19T09:32:13.054Z,25.38
2023-04-19T09:33:12.923Z,25.39
2023-04-19T09:34:12.925Z,25.41
2023-04-19T09:35:12.769Z,25.39
2023-04-19T09:36:14.622Z,25.42
2023-04-19T09:37:17.932Z,25.37
2023-04-19T09:38:12.762Z,25.42
2023-04-19T09:39:12.843Z,25.48
2023-04-19T09:40:12.742Z,25.39
2023-04-19T09:41:12.768Z,25.41
2023-04-19T09:42:12.836Z,25.54
2023-04-19T09:44:50.198Z,25.56
2023-04-19T09:45:29.262Z,25.48
2023-04-19T09:46:12.784Z,25.52
2023-04-19T09:47:12.872Z,25.59
2023-04-19T09:48:12.840Z,25.52
2023-04-19T09:49:23.220Z,25.63
2023-04-19T09:50:22.887Z,25.67
2023-04-19T09:51:14.587Z,25.56
2023-04-19T09:52:12.746Z,25.66
2023-04-19T09:53:12.739Z,25.64
2023-04-19T09:54:12.743Z,25.59
2023-04-19T09:55:24.567Z,25.64
2023-04-19T09:56:12.789Z,25.71
2023-04-19T09:57:12.768Z,25.69
2023-04-19T09:58:12.752Z,25.67
2023-04-19T09:59:20.256Z,25.71
2023-04-19T10:00:12.743Z,25.76
2023-04-19T10:01:15.600Z,25.71
2023-04-19T10:02:12.941Z,25.71
2023-04-19T10:13:30.602Z,25.89
2023-04-19T10:16:19.017Z,25.89
2023-04-19T10:16:30.601Z,25.91
2023-04-19T10:17:30.574Z,25.89
2023-04-19T10:18:30.580Z,25.93
2023-04-19T10:19:30.532Z,25.97
2023-04-19T10:20:30.531Z,26.07
2023-04-19T10:21:30.561Z,25.96
2023-04-19T10:22:30.523Z,25.97
2023-04-19T10:23:30.527Z,26.07
2023-04-19T10:24:30.537Z,26.11
2023-04-19T10:25:30.530Z,26.09
2023-04-19T10:26:30.693Z,26.16
2023-04-19T10:27:30.563Z,26.11
2023-04-19T10:28:30.594Z,26.23
2023-04-19T10:29:30.573Z,26.32
2023-04-19T10:30:30.568Z,26.23
2023-04-19T10:31:30.624Z,26.22
2023-04-19T10:32:31.393Z,26.35
2023-04-19T10:33:30.560Z,26.30
2023-04-19T10:34:30.546Z,26.35
2023-04-19T10:35:30.530Z,26.38
2023-04-19T10:36:30.538Z,26.47
2023-04-19T10:37:30.527Z,26.42
2023-04-19T10:38:30.535Z,26.44
2023-04-19T10:39:30.529Z,26.57
2023-04-19T10:40:30.528Z,26.56
2023-04-19T10:41:30.570Z,26.59
2023-04-19T10:42:30.554Z,26.61
2023-04-19T10:43:30.530Z,26.69
2023-04-19T10:44:30.561Z,26.74
2023-04-19T10:45:30.607Z,26.69
2023-04-19T10:46:30.674Z,26.81
2023-04-19T10:47:30.643Z,26.82
2023-04-19T10:48:30.594Z,26.82
2023-04-19T10:49:30.555Z,26.96
2023-04-19T10:50:30.546Z,26.91
2023-04-19T10:51:30.557Z,26.97
2023-04-19T10:52:30.584Z,27.06
2023-04-19T10:53:30.542Z,27.11
2023-04-19T10:54:30.611Z,27.12
2023-04-19T10:55:30.548Z,27.26
2023-04-19T10:56:30.606Z,27.24
2023-04-19T10:57:30.552Z,27.33
2023-04-19T10:58:30.549Z,27.33
2023-04-19T10:59:30.781Z,27.42
2023-04-19T11:00:30.595Z,27.41
2023-04-19T11:01:30.595Z,27.46
2023-04-19T11:02:30.784Z,27.52
2023-04-19T11:03:30.738Z,27.49
2023-04-19T11:04:30.687Z,27.57
2023-04-19T11:05:30.691Z,27.61
2023-04-19T11:06:30.619Z,27.64
2023-04-19T11:07:30.610Z,27.75
2023-04-19T11:08:30.594Z,27.71
2023-04-19T11:09:30.604Z,27.71
2023-04-19T11:10:30.589Z,27.81
2023-04-19T11:11:30.610Z,27.87
2023-04-19T11:12:30.597Z,27.89
2023-04-19T11:13:30.619Z,27.98
2023-04-19T11:14:30.658Z,28.06
2023-04-19T11:15:30.864Z,27.99
2023-04-19T11:16:44.497Z,28.11
2023-04-19T11:17:30.752Z,28.08
2023-04-19T11:18:30.671Z,28.20
2023-04-19T11:19:30.713Z,28.36
2023-04-19T11:20:30.636Z,28.33
2023-04-19T11:21:30.657Z,28.28
2023-04-19T11:22:30.619Z,28.36
2023-04-19T11:23:30.616Z,28.43
2023-04-19T11:24:30.609Z,28.54
2023-04-19T11:25:30.611Z,28.55
2023-04-19T11:26:30.661Z,28.64
2023-04-19T11:27:30.640Z,28.72
2023-04-19T11:28:30.616Z,28.75
2023-04-19T11:29:30.633Z,28.78
2023-04-19T11:30:30.650Z,28.82
2023-04-19T11:31:30.653Z,28.95
2023-04-19T11:32:30.680Z,28.97
2023-04-19T11:33:31.394Z,28.92
2023-04-19T11:34:30.657Z,29.02
2023-04-19T11:35:30.685Z,29.08
2023-04-19T11:36:30.663Z,29.15
2023-04-19T11:37:30.714Z,29.21
2023-04-19T11:38:30.654Z,29.30
2023-04-19T11:39:30.678Z,29.36
2023-04-19T11:40:30.659Z,29.35
2023-04-19T11:41:30.666Z,29.42
2023-04-19T11:42:30.700Z,29.48
2023-04-19T11:43:30.696Z,29.58
2023-04-19T11:44:30.689Z,29.58
2023-04-19T11:45:32.550Z,29.69
2023-04-19T11:46:30.707Z,29.72
2023-04-19T11:47:30.716Z,29.81
2023-04-19T11:48:30.701Z,29.92
2023-04-19T11:49:30.709Z,29.92
2023-04-19T11:50:30.744Z,29.98
2023-04-19T11:51:30.720Z,30.04
2023-04-19T11:52:30.702Z,30.11
2023-04-19T11:53:30.752Z,30.24
2023-04-19T11:54:30.757Z,30.14
2023-04-19T11:55:30.747Z,30.32
2023-04-19T11:56:30.759Z,30.35
2023-04-19T11:57:30.721Z,30.48
2023-04-19T11:58:30.746Z,30.56
2023-04-19T11:59:30.770Z,30.59
2023-04-19T12:00:30.752Z,30.63
2023-04-19T12:01:30.757Z,30.70
2023-04-19T12:02:30.809Z,30.82
2023-04-19T12:03:30.995Z,30.91
2023-04-19T12:04:30.865Z,30.89
2023-04-19T12:05:30.939Z,30.93
2023-04-19T12:06:30.789Z,31.10
2023-04-19T12:07:30.819Z,31.13
2023-04-19T12:08:30.810Z,31.22
2023-04-19T12:09:30.785Z,31.26
2023-04-19T12:10:30.793Z,31.34
2023-04-19T12:11:30.817Z,31.45
2023-04-19T12:12:30.800Z,31.45
2023-04-19T12:13:30.825Z,31.52
2023-04-19T12:14:30.831Z,31.65
2023-04-19T12:15:30.831Z,31.68
2023-04-19T12:16:30.830Z,31.74
2023-04-19T12:17:30.910Z,31.90
2023-04-19T12:18:30.857Z,31.94
2023-04-19T12:19:30.873Z,32.00
2023-04-19T12:20:30.851Z,32.03
2023-04-19T12:21:30.971Z,32.15
2023-04-19T12:22:30.874Z,32.24
2023-04-19T12:23:30.847Z,32.38
2023-04-19T12:24:30.878Z,32.42
2023-04-19T12:25:30.866Z,32.59
2023-04-19T12:26:30.906Z,32.62
2023-04-19T12:27:30.873Z,32.76
2023-04-19T12:28:30.892Z,32.81
2023-04-19T12:29:30.910Z,32.94
2023-04-19T12:30:30.922Z,33.05
2023-04-19T12:31:30.883Z,33.09
2023-04-19T12:32:30.901Z,33.21
2023-04-19T12:33:30.944Z,33.29
2023-04-19T12:34:30.943Z,33.47
2023-04-19T12:35:30.924Z,33.53
2023-04-19T12:36:30.909Z,33.50
2023-04-19T12:37:30.932Z,33.66
2023-04-19T12:38:30.994Z,33.66
2023-04-19T12:39:30.954Z,33.87
2023-04-19T12:40:30.953Z,33.89
2023-04-19T12:41:30.976Z,33.93
2023-04-19T12:42:30.952Z,34.12
2023-04-19T12:43:30.952Z,34.14
2023-04-19T12:44:30.974Z,34.24
2023-04-19T12:45:31.358Z,34.34
2023-04-19T12:46:31.146Z,34.39
2023-04-19T12:47:31.061Z,34.49
2023-04-19T12:48:30.987Z,34.61
2023-04-19T12:49:31.003Z,34.66
2023-04-19T12:50:31.066Z,34.67
2023-04-19T12:51:31.108Z,34.77
2023-04-19T12:55:36.204Z,34.93
2023-04-19T12:56:36.145Z,34.97
2023-04-19T12:57:36.170Z,35.06
2023-04-19T12:58:36.171Z,35.12
2023-04-19T12:59:36.168Z,35.16
2023-04-19T13:00:36.163Z,35.26
2023-04-19T13:01:36.265Z,35.28
2023-04-19T13:02:36.289Z,35.42
2023-04-19T13:03:36.440Z,35.42
2023-04-19T13:04:36.269Z,35.42
2023-04-19T13:05:36.197Z,35.40
2023-04-19T13:06:36.209Z,35.58
2023-04-19T13:07:36.237Z,35.53
2023-04-19T13:08:44.626Z,35.60
2023-04-19T13:09:36.245Z,35.60
2023-04-19T13:10:36.233Z,35.65
2023-04-19T13:11:36.260Z,35.72
2023-04-19T13:12:36.268Z,35.71
2023-04-19T13:13:36.257Z,35.77
2023-04-19T13:14:36.292Z,35.68
2023-04-19T13:15:36.318Z,35.79
2023-04-19T13:16:36.297Z,35.76
2023-04-19T13:17:36.349Z,35.86
2023-04-19T13:18:36.318Z,35.92
2023-04-19T13:19:36.399Z,35.95
2023-04-19T13:20:36.334Z,35.99
2023-04-19T13:21:36.325Z,36.04
2023-04-19T13:22:36.338Z,36.04
2023-04-19T13:23:36.345Z,36.04
2023-04-19T13:24:36.419Z,36.02
2023-04-19T13:25:36.356Z,36.06
2023-04-19T13:26:36.409Z,36.09
2023-04-19T13:27:36.403Z,36.21
2023-04-19T13:28:36.393Z,36.25
2023-04-19T13:29:36.433Z,36.28
2023-04-19T13:30:36.404Z,36.19
2023-04-19T13:31:36.502Z,36.30
2023-04-19T13:32:36.430Z,36.30
2023-04-19T13:33:36.403Z,36.36
2023-04-19T13:34:36.420Z,36.36
2023-04-19T13:35:36.490Z,36.41
2023-04-19T13:36:36.430Z,36.37
2023-04-19T13:37:36.460Z,36.36
2023-04-19T13:38:36.472Z,36.53
2023-04-19T13:39:36.478Z,36.47
2023-04-19T13:40:36.490Z,36.43
2023-04-19T13:41:36.528Z,36.44
2023-04-19T13:42:36.493Z,36.53
2023-04-19T13:43:36.560Z,36.51
2023-04-19T13:44:36.560Z,36.59
2023-04-19T13:45:36.532Z,36.52
2023-04-19T13:46:36.589Z,36.56
2023-04-19T13:47:36.682Z,36.58
2023-04-19T13:48:36.533Z,36.49
2023-04-19T13:49:36.544Z,36.58
2023-04-19T13:50:36.564Z,36.62
2023-04-19T13:51:46.943Z,36.51
2023-04-19T13:52:36.599Z,36.67
2023-04-19T13:53:36.592Z,36.58
2023-04-19T13:54:36.590Z,36.62
2023-04-19T13:55:36.589Z,36.63
2023-04-19T13:56:36.606Z,36.63
2023-04-19T13:57:36.627Z,36.65
2023-04-19T13:58:36.634Z,36.63
2023-04-19T13:59:36.673Z,36.67
2023-04-19T14:00:36.668Z,36.63
2023-04-19T14:01:36.636Z,36.65
2023-04-19T14:02:36.781Z,36.65
2023-04-19T14:03:36.886Z,36.67
2023-04-19T14:04:36.796Z,36.63
2023-04-19T14:05:36.677Z,36.67
2023-04-19T14:06:36.713Z,36.63
2023-04-19T14:07:36.710Z,36.63
2023-04-19T14:08:36.695Z,36.61
2023-04-19T14:09:36.731Z,36.62
2023-04-19T14:10:36.727Z,36.63
2023-04-19T14:11:36.726Z,36.52
2023-04-19T14:12:36.750Z,36.56
2023-04-19T14:13:36.752Z,36.59
2023-04-19T14:14:36.767Z,36.53
2023-04-19T14:15:36.783Z,36.58
2023-04-19T14:16:36.845Z,36.53
2023-04-19T14:17:36.817Z,36.56
2023-04-19T14:18:36.805Z,36.53
2023-04-19T14:19:36.814Z,36.49
2023-04-19T14:20:36.803Z,36.53
2023-04-19T14:21:36.838Z,36.53
2023-04-19T14:22:36.811Z,36.56
2023-04-19T14:23:36.835Z,36.41
2023-04-19T14:24:36.844Z,36.39
2023-04-19T14:25:36.868Z,36.44
2023-04-19T14:26:36.856Z,36.49
2023-04-19T14:27:36.863Z,36.40
2023-04-19T14:28:36.869Z,36.47
2023-04-19T14:29:36.879Z,36.37
2023-04-19T14:30:36.889Z,36.37
2023-04-19T14:31:37.006Z,36.43
2023-04-19T14:32:36.964Z,36.37
2023-04-19T14:33:36.903Z,36.30
2023-04-19T14:34:36.916Z,36.28
2023-04-19T14:35:36.946Z,36.34
2023-04-19T14:36:36.974Z,36.32
2023-04-19T14:37:36.940Z,36.26
2023-04-19T14:38:36.940Z,36.25
2023-04-19T14:39:36.993Z,36.22
2023-04-19T14:40:36.996Z,36.21
2023-04-19T14:41:36.988Z,36.17
2023-04-19T14:42:36.976Z,36.09
2023-04-19T14:43:37.034Z,36.19
2023-04-19T14:44:37.015Z,36.08
2023-04-19T14:45:37.039Z,36.08
2023-04-19T14:46:37.047Z,36.06
2023-04-19T14:47:37.080Z,35.87
2023-04-19T14:48:37.046Z,35.77
2023-04-19T14:49:37.064Z,35.68
2023-04-19T14:50:37.110Z,35.62
2023-04-19T14:51:37.052Z,35.53
2023-04-19T14:52:37.071Z,35.55
2023-04-19T14:53:37.085Z,35.53
2023-04-19T14:54:37.139Z,35.50
2023-04-19T14:55:37.122Z,35.43
2023-04-19T14:56:37.109Z,35.35
2023-04-19T14:57:37.089Z,35.38
2023-04-19T14:58:37.143Z,35.34
2023-04-19T14:59:37.122Z,35.35
2023-04-19T15:00:37.225Z,35.18
2023-04-19T15:01:37.201Z,35.28
2023-04-19T15:02:37.193Z,35.18
2023-04-19T15:03:37.435Z,35.21
2023-04-19T15:04:40.592Z,35.06
2023-04-19T15:05:37.239Z,34.72
2023-04-19T15:06:37.240Z,34.69
2023-04-19T15:07:37.194Z,34.67
2023-04-19T15:08:37.177Z,34.67
2023-04-19T15:09:37.248Z,34.66
2023-04-19T15:10:38.404Z,34.56
2023-04-19T15:11:37.260Z,34.45
2023-04-19T15:12:37.217Z,34.40
2023-04-19T15:13:37.214Z,34.33
2023-04-19T15:14:37.223Z,34.27
2023-04-19T15:15:37.288Z,34.12
2023-04-19T15:16:37.297Z,34.08
2023-04-19T15:17:37.283Z,34.02
2023-04-19T15:18:37.288Z,33.92
2023-04-19T15:19:37.284Z,33.90
2023-04-19T15:20:37.258Z,33.55
2023-04-19T15:21:37.261Z,33.29
2023-04-19T15:22:37.263Z,33.08
2023-04-19T15:23:37.259Z,32.72
2023-04-19T15:24:37.260Z,32.50
2023-04-19T15:25:37.324Z,32.28
2023-04-19T15:26:37.300Z,32.10
2023-04-19T15:27:37.305Z,32.10
2023-04-19T15:28:37.281Z,32.01
2023-04-19T15:29:37.287Z,31.90
2023-04-19T15:30:37.321Z,31.67
2023-04-19T15:31:37.436Z,31.53
2023-04-19T15:32:37.346Z,31.25
2023-04-19T15:33:37.302Z,31.23
2023-04-19T15:34:37.311Z,31.00
2023-04-19T15:35:37.353Z,30.88
2023-04-19T15:36:37.324Z,30.62
2023-04-19T15:37:37.358Z,30.48
2023-04-19T15:38:37.340Z,30.37
2023-04-19T15:39:37.334Z,30.16
2023-04-19T15:40:37.360Z,29.97
2023-04-19T15:41:37.367Z,29.88
2023-04-19T15:42:37.329Z,29.73
2023-04-19T15:43:37.338Z,29.57
2023-04-19T15:44:37.371Z,29.45
2023-04-19T15:45:37.363Z,29.28
2023-04-19T15:46:37.433Z,29.17
2023-04-19T15:47:37.455Z,29.01
2023-04-19T15:48:37.363Z,28.86
2023-04-19T15:49:37.372Z,28.78
2023-04-19T15:50:37.383Z,28.55
2023-04-19T15:51:37.390Z,28.49
2023-04-19T15:52:37.395Z,28.41
2023-04-19T15:53:37.380Z,28.35
2023-04-19T15:54:37.422Z,28.11
2023-04-19T15:55:37.393Z,27.96
2023-04-19T15:56:37.394Z,27.99
2023-04-19T15:57:37.432Z,27.89
2023-04-19T15:58:37.420Z,27.74
2023-04-19T15:59:37.394Z,27.66
2023-04-19T16:00:37.376Z,27.49
2023-04-19T16:12:36.439Z,26.34
2023-04-19T16:13:36.409Z,26.32
2023-04-19T16:14:36.391Z,26.17
2023-04-19T16:15:36.402Z,26.00
2023-04-19T16:16:36.424Z,25.96
2023-04-19T16:17:36.454Z,25.88
2023-04-19T16:18:36.394Z,25.81
2023-04-19T16:19:36.368Z,25.76
2023-04-19T16:20:36.415Z,25.57
2023-04-19T16:21:36.387Z,25.52
2023-04-19T16:22:36.385Z,25.44
2023-04-19T16:23:36.412Z,25.37
2023-04-19T16:24:36.371Z,25.32
2023-04-19T16:25:36.377Z,25.30
2023-04-19T16:26:36.374Z,25.22
2023-04-19T16:27:36.379Z,25.11
2023-04-19T16:28:36.438Z,25.04
2023-04-19T16:29:36.371Z,25.02
2023-04-19T16:30:36.393Z,25.05
2023-04-19T16:31:36.394Z,24.94
2023-04-19T16:32:36.383Z,24.92
2023-04-19T16:33:36.360Z,24.75
2023-04-19T16:34:36.375Z,24.78
2023-04-19T16:35:36.396Z,24.80
2023-04-19T16:36:36.374Z,24.78
2023-04-19T16:37:36.371Z,24.67
2023-04-19T16:38:36.367Z,24.67
2023-04-19T16:39:36.345Z,24.63
2023-04-19T16:40:36.352Z,24.58
2023-04-19T16:41:36.362Z,24.54
2023-04-19T16:42:36.371Z,24.49
2023-04-19T16:43:36.991Z,24.49
2023-04-19T16:44:36.385Z,24.37
2023-04-19T16:45:36.347Z,24.36
2023-04-19T16:46:36.569Z,24.27
2023-04-19T16:47:36.400Z,24.29
2023-04-19T16:48:36.453Z,24.33
2023-04-19T16:49:36.352Z,24.26
2023-04-19T16:50:36.344Z,24.24
2023-04-19T16:51:36.374Z,24.18
2023-04-19T16:52:36.379Z,24.21
2023-04-19T16:53:36.405Z,24.09
2023-04-19T16:54:36.348Z,24.14
2023-04-19T16:55:36.344Z,24.08
2023-04-19T16:56:36.350Z,24.02
2023-04-19T16:57:36.337Z,24.09
2023-04-19T16:58:36.326Z,24.00
2023-04-19T16:59:36.369Z,24.00
2023-04-19T17:00:36.350Z,23.99
2023-04-19T17:01:36.344Z,23.97
2023-04-19T17:02:36.537Z,23.96
2023-04-19T17:03:36.564Z,23.92
2023-04-19T17:04:36.581Z,23.93
2023-04-19T17:05:36.320Z,24.00
2023-04-19T17:06:36.353Z,23.97
2023-04-19T17:07:36.392Z,23.87
2023-04-19T17:08:36.326Z,23.87
2023-04-19T17:09:36.304Z,23.93
2023-04-19T17:10:36.294Z,23.81
2023-04-19T17:11:36.315Z,23.85
2023-04-19T17:12:36.481Z,23.74
2023-04-19T17:13:36.309Z,23.74
2023-04-19T17:14:36.318Z,23.79
2023-04-19T17:15:36.369Z,23.72
2023-04-19T17:16:36.309Z,23.71
2023-04-19T17:17:36.421Z,23.66
2023-04-19T17:18:36.300Z,23.63
2023-04-19T17:19:36.301Z,23.70
2023-04-19T17:20:36.325Z,23.66
2023-04-19T17:21:36.331Z,23.63
2023-04-19T17:22:36.291Z,23.59
2023-04-19T17:23:36.276Z,23.63
2023-04-19T17:24:36.290Z,23.64
2023-04-19T17:25:36.293Z,23.59